Main page
METAR-TAF:

METAR-TAF

Airports :

Schwäbisch Hall, Germany

latitude: 49-07-06N, longitude: 9-47-02E, elevation: 398 m

Current weather observation

The report was made 44 minutes ago, at 23:50 UTC
Wind 13 kt from the West/Southwest
Temperature 5°C
Humidity 87%
Pressure 1023 hPa
Visibility 10 km or more

METAR: EDTY 172350Z AUTO 24013KT 9999 // BKN130/// OVC180/// 05/03 Q1023

Time: 01:34 (00:34 UTC)

Forecast

The report was made 7 hours and 34 minutes ago, at 17:00 UTC
Forecast valid from 17 at 18 UTC to 18 at 03 UTC
Wind 10 kt from the West/Southwest
Visibility 10 km or more
Few clouds at a height of 1200 ft
Broken clouds at a height of 3000 ft
Probability 30% :
Temporary
from 17 at 21 UTC to 17 at 23 UTC
Wind 15 kt from the West with gusts up to 25 kt
Visibility: 4000 m
Broken clouds at a height of 1500 ft, Towering cumulus.
rain showers

TAF: EDTY 171700Z 1718/1803 24010KT 9999 FEW012 BKN030 PROB30 TEMPO 1721/1723 26015G25KT 4000 SHRA BKN015TCU

Weather observations and forecasts of more than 4000 airports (METAR and TAF reports).

The available stations are represented by yellow and red dots on the map.

Hover mouse over dot to see the name of the station.

Then click to see weather observations and forecasts.

To change the map : click on the green buttons with a black cross to zoom in, on the green button with a dash to zoom out, or on the green arrows for adjacent maps.


METAR-TAF: